Time;durP1;ratioP1;P1;durP2;ratioP2;P2;SDS_P1;SDS_P2;PMS_P1;PMS_P2;Temp;Humidity;BMP_temperature;BMP_pressure;BME280_temperature;BME280_humidity;BME280_pressure;Samples;Min_cycle;Max_cycle;Signal;HPM_P1;HPM_P2
2022/07/01 00:00:00;;;;;;;15.55;13.85;;;17.80;99.90;;;;;;4123403;28;20034;-69
2022/07/01 00:02:02;;;;;;;14.82;13.00;;;17.80;99.90;;;;;;4126720;28;20114;-69
2022/07/01 00:04:03;;;;;;;15.65;13.23;;;17.80;99.90;;;;;;4123214;28;20454;-68
2022/07/01 00:06:03;;;;;;;16.58;14.23;;;17.90;99.90;;;;;;4127460;28;20033;-68
2022/07/01 00:08:04;;;;;;;17.27;15.02;;;17.90;99.90;;;;;;4126557;28;20045;-69
2022/07/01 00:10:05;;;;;;;16.83;13.27;;;18.00;99.90;;;;;;4121801;28;20065;-69
2022/07/01 00:12:06;;;;;;;15.50;13.20;;;18.00;99.90;;;;;;4123557;28;20062;-69
2022/07/01 00:14:07;;;;;;;16.67;14.05;;;18.00;99.90;;;;;;4121944;28;20031;-68
2022/07/01 00:16:07;;;;;;;19.67;16.65;;;18.00;99.90;;;;;;4126135;28;20096;-69
2022/07/01 00:18:08;;;;;;;19.02;15.93;;;17.90;99.90;;;;;;4125757;28;20367;-69
2022/07/01 00:20:09;;;;;;;17.90;15.52;;;18.00;99.90;;;;;;4122380;28;20035;-69
2022/07/01 00:22:10;;;;;;;17.27;14.93;;;17.90;99.90;;;;;;4124541;28;20367;-69
2022/07/01 00:24:11;;;;;;;18.05;14.13;;;17.90;99.90;;;;;;4124194;28;20081;-68
2022/07/01 00:26:11;;;;;;;19.83;16.75;;;17.90;99.90;;;;;;4125683;28;20062;-69
2022/07/01 00:28:12;;;;;;;14.95;12.93;;;17.80;99.90;;;;;;4125213;28;20034;-69
2022/07/01 00:30:14;;;;;;;14.10;12.57;;;17.90;99.90;;;;;;4122130;28;20154;-69
2022/07/01 00:32:15;;;;;;;15.77;12.57;;;17.90;99.90;;;;;;4126616;28;20038;-68
2022/07/01 00:34:15;;;;;;;12.82;11.48;;;17.90;99.90;;;;;;4123658;28;20402;-69
2022/07/01 00:36:16;;;;;;;15.63;11.80;;;17.90;99.90;;;;;;4125416;28;20512;-69
2022/07/01 00:38:16;;;;;;;12.82;10.68;;;17.90;99.90;;;;;;4124706;28;20509;-69
2022/07/01 00:40:17;;;;;;;15.27;10.98;;;17.90;99.90;;;;;;4124404;28;20496;-69
2022/07/01 00:42:18;;;;;;;11.45;9.65;;;17.90;99.90;;;;;;4125048;28;20104;-69
2022/07/01 00:44:19;;;;;;;11.02;8.98;;;17.80;99.90;;;;;;4121184;28;20062;-68
2022/07/01 00:46:20;;;;;;;11.27;9.32;;;17.80;99.90;;;;;;4125929;28;20178;-69
2022/07/01 00:48:22;;;;;;;10.27;8.43;;;17.80;99.90;;;;;;4125129;28;20040;-69
2022/07/01 00:50:23;;;;;;;9.88;8.18;;;17.80;99.90;;;;;;4122034;28;20589;-69
2022/07/01 00:52:24;;;;;;;11.52;7.95;;;17.70;99.90;;;;;;4125036;28;20026;-69
2022/07/01 00:54:26;;;;;;;14.15;8.10;;;17.70;99.90;;;;;;4122633;28;20035;-69
2022/07/01 00:56:27;;;;;;;8.35;7.40;;;17.60;99.90;;;;;;4125254;28;20049;-69
2022/07/01 00:58:30;;;;;;;9.50;7.80;;;17.60;99.90;;;;;;4124963;28;20027;-68
2022/07/01 01:00:31;;;;;;;9.13;6.70;;;17.60;99.90;;;;;;4121994;28;20030;-69
2022/07/01 01:02:31;;;;;;;9.43;7.10;;;17.60;99.90;;;;;;4126972;28;20110;-69
2022/07/01 01:04:32;;;;;;;9.55;7.85;;;17.60;99.90;;;;;;4129559;28;20062;-68
2022/07/01 01:06:33;;;;;;;9.68;7.25;;;17.60;99.90;;;;;;4129159;28;20084;-69
2022/07/01 01:08:35;;;;;;;6.50;5.85;;;17.60;99.90;;;;;;4130933;28;20034;-69
2022/07/01 01:10:37;;;;;;;7.57;6.25;;;17.50;99.90;;;;;;4130587;28;20041;-69
2022/07/01 01:12:38;;;;;;;7.57;6.78;;;17.60;99.90;;;;;;4124445;28;20038;-69
2022/07/01 01:14:46;;;;;;;6.85;6.15;;;17.50;99.90;;;;;;4121338;28;20486;-69
2022/07/01 01:16:47;;;;;;;10.68;7.35;;;17.50;99.90;;;;;;4127151;28;20519;-69
2022/07/01 01:18:49;;;;;;;7.78;6.32;;;17.50;99.90;;;;;;4124398;28;20034;-69
2022/07/01 01:20:51;;;;;;;6.10;5.50;;;17.50;99.90;;;;;;4121676;28;20034;-69
2022/07/01 01:22:52;;;;;;;7.93;6.32;;;17.50;99.90;;;;;;4127621;28;20187;-69
2022/07/01 01:24:52;;;;;;;7.55;6.18;;;17.50;99.90;;;;;;4122182;28;20614;-69
2022/07/01 01:26:53;;;;;;;7.53;6.32;;;17.40;99.90;;;;;;4125799;28;20113;-69
2022/07/01 01:28:53;;;;;;;7.72;6.47;;;17.40;99.90;;;;;;4123963;28;20474;-69
2022/07/01 01:30:54;;;;;;;7.20;6.22;;;17.40;99.90;;;;;;4121432;28;20054;-69
2022/07/01 01:32:55;;;;;;;9.90;7.32;;;17.40;99.90;;;;;;4124180;28;20494;-69
2022/07/01 01:34:56;;;;;;;7.38;5.93;;;17.40;99.90;;;;;;4123079;28;20034;-69
2022/07/01 01:36:57;;;;;;;9.27;5.53;;;17.30;99.90;;;;;;4126836;28;20045;-68
2022/07/01 01:39:04;;;;;;;7.90;5.65;;;17.30;99.90;;;;;;4124567;28;20060;-69
2022/07/01 01:41:05;;;;;;;9.18;6.95;;;17.30;99.90;;;;;;4120751;28;20485;-69
2022/07/01 01:43:05;;;;;;;7.80;5.60;;;17.30;99.90;;;;;;4126507;28;20166;-69
2022/07/01 01:45:07;;;;;;;11.75;6.70;;;17.30;99.90;;;;;;4125192;28;20129;-69
2022/07/01 01:47:07;;;;;;;8.60;5.88;;;17.30;99.90;;;;;;4127529;28;20029;-69
2022/07/01 01:49:08;;;;;;;10.18;6.18;;;17.20;99.90;;;;;;4124201;28;20030;-69
2022/07/01 01:51:09;;;;;;;10.50;6.57;;;17.20;99.90;;;;;;4120923;28;20394;-69
2022/07/01 01:53:09;;;;;;;9.98;5.65;;;17.10;99.90;;;;;;4123240;28;20026;-69
2022/07/01 01:55:11;;;;;;;11.48;5.95;;;17.10;99.90;;;;;;4124628;28;20141;-71
2022/07/01 01:57:11;;;;;;;10.50;5.85;;;17.10;99.90;;;;;;4123964;28;20039;-69
2022/07/01 01:59:12;;;;;;;7.80;5.00;;;17.20;99.90;;;;;;4124213;28;20096;-68
2022/07/01 02:01:14;;;;;;;8.57;5.50;;;17.20;99.90;;;;;;4120466;28;20066;-69
2022/07/01 02:03:14;;;;;;;7.72;4.88;;;17.20;99.90;;;;;;4122586;28;20042;-69
2022/07/01 02:05:15;;;;;;;10.15;6.00;;;17.20;99.90;;;;;;4123887;28;20189;-69
2022/07/01 02:07:16;;;;;;;9.02;5.85;;;17.20;99.90;;;;;;4125805;28;20054;-69
2022/07/01 02:09:17;;;;;;;10.80;6.25;;;17.20;99.90;;;;;;4125456;28;20040;-69
2022/07/01 02:11:18;;;;;;;9.32;5.97;;;17.10;99.90;;;;;;4120547;28;20433;-69
2022/07/01 02:13:19;;;;;;;8.43;5.25;;;17.10;99.90;;;;;;4126745;28;20042;-68
2022/07/01 02:15:19;;;;;;;9.05;5.22;;;17.10;99.90;;;;;;4123979;28;20482;-69
2022/07/01 02:17:20;;;;;;;10.23;5.57;;;17.10;99.90;;;;;;4123921;28;20498;-69
2022/07/01 02:19:21;;;;;;;10.07;5.78;;;17.10;99.90;;;;;;4123952;28;20034;-68
2022/07/01 02:21:21;;;;;;;9.90;5.75;;;17.10;99.90;;;;;;4119056;28;20046;-69
2022/07/01 02:23:22;;;;;;;12.95;7.20;;;17.00;99.90;;;;;;4121197;28;20030;-69
2022/07/01 02:25:23;;;;;;;11.13;6.53;;;17.00;99.90;;;;;;4127886;28;20104;-69
2022/07/01 02:27:23;;;;;;;11.80;6.72;;;17.00;99.90;;;;;;4124493;28;20034;-69
2022/07/01 02:29:24;;;;;;;10.85;5.72;;;17.00;99.90;;;;;;4126438;28;20092;-69
2022/07/01 02:31:24;;;;;;;9.57;5.65;;;17.00;99.90;;;;;;4128163;28;20122;-69
2022/07/01 02:33:25;;;;;;;9.15;5.57;;;17.00;99.90;;;;;;4129304;28;20053;-68
2022/07/01 02:35:25;;;;;;;12.38;6.57;;;17.00;99.90;;;;;;4128202;28;20046;-69
2022/07/01 02:37:27;;;;;;;10.82;6.60;;;17.10;99.90;;;;;;4126618;28;20045;-69
2022/07/01 02:39:27;;;;;;;9.57;6.00;;;17.10;99.90;;;;;;4128751;28;20030;-69
2022/07/01 02:41:28;;;;;;;12.00;6.40;;;17.10;99.90;;;;;;4128595;28;20088;-68
2022/07/01 02:43:29;;;;;;;9.35;5.78;;;17.00;99.90;;;;;;4129052;28;20386;-69
2022/07/01 02:45:29;;;;;;;12.50;6.47;;;17.10;99.90;;;;;;4125922;28;20117;-69
2022/07/01 02:47:35;;;;;;;11.48;6.70;;;17.10;99.90;;;;;;4128585;28;20037;-69
2022/07/01 02:49:35;;;;;;;12.70;7.38;;;17.00;99.90;;;;;;4129189;28;20104;-68
2022/07/01 02:51:36;;;;;;;11.95;7.38;;;17.00;99.90;;;;;;4128922;28;20035;-69
2022/07/01 02:53:36;;;;;;;9.55;6.30;;;16.90;99.90;;;;;;4129349;28;20034;-68
2022/07/01 02:55:37;;;;;;;9.77;6.18;;;16.90;99.90;;;;;;4127352;28;20035;-69
2022/07/01 02:57:41;;;;;;;13.32;8.07;;;16.90;99.90;;;;;;4129102;28;20027;-69
2022/07/01 02:59:42;;;;;;;13.77;7.78;;;16.90;99.90;;;;;;4128699;28;20041;-69
2022/07/01 03:01:43;;;;;;;9.82;6.40;;;16.70;99.90;;;;;;4128377;28;20030;-69
2022/07/01 03:03:43;;;;;;;9.32;5.88;;;16.80;99.90;;;;;;4129155;28;20065;-69
2022/07/01 03:05:44;;;;;;;9.68;5.78;;;16.80;99.90;;;;;;4125215;28;20038;-68
2022/07/01 03:07:44;;;;;;;9.70;5.70;;;16.80;99.90;;;;;;4128761;28;20034;-69
2022/07/01 03:09:45;;;;;;;6.70;4.82;;;16.90;99.90;;;;;;4128483;28;20041;-69
2022/07/01 03:11:46;;;;;;;11.15;5.90;;;16.90;99.90;;;;;;4127072;28;20619;-69
2022/07/01 03:13:47;;;;;;;8.93;5.35;;;17.00;99.90;;;;;;4128498;28;20030;-69
2022/07/01 03:15:47;;;;;;;9.63;5.70;;;17.00;99.90;;;;;;4125158;28;20525;-69
2022/07/01 03:17:48;;;;;;;10.38;5.32;;;17.10;99.90;;;;;;4128621;28;20038;-69
2022/07/01 03:19:51;;;;;;;7.85;5.05;;;17.10;99.90;;;;;;4127451;28;20494;-69
2022/07/01 03:21:51;;;;;;;7.60;5.30;;;17.10;99.90;;;;;;4127923;28;20053;-69
2022/07/01 03:23:52;;;;;;;8.60;5.43;;;17.20;99.90;;;;;;4128331;28;20031;-69
2022/07/01 03:25:53;;;;;;;7.47;5.03;;;17.20;99.90;;;;;;4124867;28;20490;-68
2022/07/01 03:27:53;;;;;;;8.65;5.60;;;17.20;99.90;;;;;;4128339;28;20042;-69
2022/07/01 03:29:54;;;;;;;9.93;5.75;;;17.30;99.90;;;;;;4128832;28;20503;-69
2022/07/01 03:31:55;;;;;;;10.60;5.70;;;17.30;99.90;;;;;;4127779;28;20113;-69
2022/07/01 03:33:55;;;;;;;9.02;5.68;;;17.30;99.90;;;;;;4128048;28;20125;-69
2022/07/01 03:35:56;;;;;;;8.43;4.78;;;17.30;99.90;;;;;;4126765;28;20041;-69
2022/07/01 03:37:57;;;;;;;7.90;4.70;;;17.30;99.90;;;;;;4128691;28;20039;-69
2022/07/01 03:39:58;;;;;;;8.30;5.10;;;17.40;99.90;;;;;;4143616;28;20359;-69
2022/07/01 03:41:58;;;;;;;9.02;5.30;;;17.40;99.90;;;;;;4127901;28;20036;-69
2022/07/01 03:43:59;;;;;;;10.75;5.88;;;17.40;99.90;;;;;;4128818;28;20101;-68
2022/07/01 03:46:01;;;;;;;11.95;5.90;;;17.40;99.90;;;;;;4126299;28;20046;-69
2022/07/01 03:48:04;;;;;;;9.90;5.40;;;17.40;99.90;;;;;;4128807;28;20137;-69
2022/07/01 03:50:05;;;;;;;9.98;5.93;;;17.40;99.90;;;;;;4128176;28;20025;-71
2022/07/01 03:52:06;;;;;;;8.70;5.10;;;17.40;99.90;;;;;;4128118;28;20532;-69
2022/07/01 03:56:26;;;;;;;8.93;5.40;;;17.40;99.90;;;;;;4126663;28;20054;-69
2022/07/01 03:58:26;;;;;;;9.32;5.45;;;17.40;99.90;;;;;;4128712;28;20165;-69
2022/07/01 04:00:28;;;;;;;11.98;5.57;;;17.40;99.90;;;;;;4127959;28;20489;-69
2022/07/01 04:02:28;;;;;;;8.38;5.63;;;17.40;99.90;;;;;;4127571;28;20077;-69
2022/07/01 04:04:29;;;;;;;8.85;5.70;;;17.50;99.90;;;;;;4124812;28;20042;-69
2022/07/01 04:06:30;;;;;;;8.57;5.57;;;17.50;99.90;;;;;;4121306;28;20528;-69
2022/07/01 04:08:30;;;;;;;11.27;6.18;;;17.50;99.90;;;;;;4127152;28;20035;-69
2022/07/01 04:10:33;;;;;;;7.60;5.57;;;17.50;99.90;;;;;;4109956;28;20071;-69
2022/07/01 04:12:34;;;;;;;;;;;17.50;99.90;;;;;;4128317;28;20038;-69
2022/07/01 04:14:35;;;;;;;11.05;5.82;;;17.50;99.90;;;;;;4121125;28;19914;-70
2022/07/01 04:16:36;;;;;;;7.60;5.82;;;17.50;99.90;;;;;;4123651;28;20659;-69
2022/07/01 04:18:36;;;;;;;9.43;5.18;;;17.40;99.90;;;;;;4119691;28;20398;-69
2022/07/01 04:20:37;;;;;;;7.40;5.18;;;17.30;99.90;;;;;;4112691;28;20031;-69
2022/07/01 04:22:37;;;;;;;8.85;5.15;;;17.30;99.90;;;;;;4119984;28;20085;-69
2022/07/01 04:24:38;;;;;;;7.90;4.97;;;17.30;99.90;;;;;;4119560;28;20478;-69
2022/07/01 04:26:39;;;;;;;8.88;5.45;;;17.30;99.90;;;;;;4125296;28;20026;-68
2022/07/01 04:28:39;;;;;;;8.48;5.57;;;17.30;99.90;;;;;;4119813;28;20039;-69
2022/07/01 04:30:41;;;;;;;8.23;5.15;;;17.20;99.90;;;;;;4110415;28;20118;-68
2022/07/01 04:32:42;;;;;;;9.55;5.47;;;17.20;99.90;;;;;;4108220;28;20487;-69
2022/07/01 04:34:42;;;;;;;10.02;5.30;;;17.20;99.90;;;;;;4122182;28;20037;-68
2022/07/01 04:36:43;;;;;;;9.98;4.95;;;17.10;99.90;;;;;;4116300;28;20038;-68
2022/07/01 04:38:44;;;;;;;7.07;4.40;;;17.00;99.90;;;;;;4130711;28;20114;-68
2022/07/01 04:41:58;;;;;;;9.30;5.38;;;17.10;99.90;;;;;;4121707;28;20478;-68
2022/07/01 04:43:05;;;;;;;7.13;4.53;;;17.10;99.90;;;;;;4122436;28;20042;-69
2022/07/01 04:45:07;;;;;;;7.07;4.38;;;17.00;99.90;;;;;;4125812;28;20046;-69
2022/07/01 04:47:07;;;;;;;7.38;4.45;;;17.00;99.90;;;;;;4129602;28;20054;-69
2022/07/01 04:49:08;;;;;;;6.22;4.13;;;17.10;99.90;;;;;;4125185;28;20034;-69
2022/07/01 04:51:09;;;;;;;6.60;4.28;;;17.00;99.90;;;;;;4128130;28;20045;-69
2022/07/01 04:53:09;;;;;;;4.38;3.85;;;17.00;99.90;;;;;;4122807;28;20070;-69
2022/07/01 04:55:10;;;;;;;6.43;4.63;;;17.00;99.90;;;;;;4122562;28;20473;-71
2022/07/01 04:57:11;;;;;;;5.43;3.83;;;17.00;99.90;;;;;;4125554;28;20121;-68
2022/07/01 04:59:15;;;;;;;6.72;4.57;;;17.10;99.90;;;;;;4117004;28;20035;-69
2022/07/01 05:01:17;;;;;;;7.88;5.70;;;17.10;99.90;;;;;;4125894;28;20030;-69
2022/07/01 05:03:17;;;;;;;5.30;4.25;;;17.00;99.90;;;;;;4124195;28;20471;-69
2022/07/01 05:05:18;;;;;;;5.95;3.88;;;17.00;99.90;;;;;;4126082;28;20030;-69
2022/07/01 05:07:31;;;;;;;5.88;4.20;;;17.00;99.90;;;;;;4127020;28;20058;-69
2022/07/01 05:09:31;;;;;;;;;;;17.00;99.90;;;;;;4125461;28;20056;-69
2022/07/01 05:11:32;;;;;;;5.45;3.30;;;17.10;99.90;;;;;;4123166;28;19961;-69
2022/07/01 05:13:33;;;;;;;6.93;4.05;;;17.10;99.90;;;;;;4124856;28;20364;-68
2022/07/01 05:15:34;;;;;;;6.32;3.83;;;17.10;99.90;;;;;;4125173;28;20034;-69
2022/07/01 05:22:14;;;;;;;8.02;3.75;;;17.20;99.90;;;;;;4122552;28;20205;-69
2022/07/01 05:24:14;;;;;;;5.18;3.45;;;17.20;99.90;;;;;;4122795;28;20397;-69
2022/07/01 05:26:18;;;;;;;4.57;3.47;;;17.10;99.90;;;;;;4124343;28;20034;-69
2022/07/01 05:28:18;;;;;;;6.95;4.32;;;17.10;99.90;;;;;;4126749;28;20089;-68
2022/07/01 05:30:20;;;;;;;5.22;3.60;;;17.10;99.90;;;;;;4125215;28;20039;-69
2022/07/01 05:32:20;;;;;;;8.82;4.53;;;17.10;99.90;;;;;;4125862;28;20045;-68
2022/07/01 05:34:21;;;;;;;4.47;3.50;;;17.10;99.90;;;;;;4124465;28;20121;-69
2022/07/01 05:36:21;;;;;;;5.97;3.95;;;17.10;99.90;;;;;;4124260;28;20467;-68
2022/07/01 05:38:22;;;;;;;8.38;4.32;;;17.10;99.90;;;;;;4125612;28;20039;-69
2022/07/01 05:40:23;;;;;;;7.57;4.95;;;17.10;99.90;;;;;;4124933;28;20034;-69
2022/07/01 05:42:23;;;;;;;6.57;4.32;;;17.00;99.90;;;;;;4123154;28;20030;-68
2022/07/01 05:44:24;;;;;;;4.47;3.40;;;17.00;99.90;;;;;;4119825;28;20043;-71
2022/07/01 05:46:25;;;;;;;5.00;3.60;;;17.00;99.90;;;;;;4123221;28;20105;-71
2022/07/01 05:48:25;;;;;;;5.00;3.03;;;17.00;99.90;;;;;;4127371;28;20385;-71
2022/07/01 05:50:26;;;;;;;6.93;3.60;;;17.00;99.90;;;;;;4126043;28;20041;-72
2022/07/01 05:52:27;;;;;;;4.57;3.53;;;17.10;99.90;;;;;;4123033;28;20466;-71
2022/07/01 05:54:28;;;;;;;7.38;4.40;;;17.10;99.90;;;;;;4117141;28;20054;-72
2022/07/01 05:56:28;;;;;;;5.38;3.83;;;17.10;99.90;;;;;;4107635;28;20114;-71
2022/07/01 05:58:29;;;;;;;6.63;4.05;;;17.10;99.90;;;;;;4126819;28;20116;-71
2022/07/01 06:00:29;;;;;;;5.53;3.63;;;17.10;99.90;;;;;;4125742;28;21039;-72
2022/07/01 06:02:30;;;;;;;6.50;4.00;;;17.00;99.90;;;;;;4124596;28;20026;-71
2022/07/01 06:04:30;;;;;;;10.65;4.25;;;17.00;99.90;;;;;;4124595;28;20500;-72
2022/07/01 06:06:31;;;;;;;7.05;3.95;;;17.00;99.90;;;;;;4125139;28;20125;-72
2022/07/01 06:08:33;;;;;;;5.07;3.65;;;17.00;99.90;;;;;;4124995;28;20062;-72
2022/07/01 06:10:35;;;;;;;10.15;4.70;;;17.00;99.90;;;;;;4107516;28;20038;-72
2022/07/01 06:12:36;;;;;;;7.88;3.95;;;17.00;99.90;;;;;;4125247;28;20390;-72
2022/07/01 06:14:37;;;;;;;6.53;3.38;;;16.90;99.90;;;;;;4126103;28;20038;-71
2022/07/01 06:16:38;;;;;;;7.10;3.55;;;16.90;99.90;;;;;;4123288;28;20118;-72
2022/07/01 06:18:38;;;;;;;8.05;3.78;;;16.90;99.90;;;;;;4125572;28;20088;-72
2022/07/01 06:20:39;;;;;;;6.60;3.90;;;16.90;99.90;;;;;;4120088;28;20034;-71
2022/07/01 06:22:39;;;;;;;7.00;3.50;;;16.90;99.90;;;;;;4126026;28;20122;-72
2022/07/01 06:24:40;;;;;;;7.43;4.05;;;16.90;99.90;;;;;;4124989;28;20033;-71
2022/07/01 06:26:41;;;;;;;5.47;3.67;;;16.90;99.90;;;;;;4124460;28;20063;-71
2022/07/01 06:28:42;;;;;;;5.10;4.13;;;17.00;99.90;;;;;;4125876;28;20046;-71
2022/07/01 06:30:45;;;;;;;4.68;3.53;;;17.00;99.90;;;;;;4125534;28;20074;-71
2022/07/01 06:32:46;;;;;;;6.30;3.67;;;17.00;99.90;;;;;;4108798;28;20073;-72
2022/07/01 06:34:48;;;;;;;8.02;4.43;;;17.00;99.90;;;;;;4124721;28;20069;-72
2022/07/01 06:36:48;;;;;;;8.93;5.13;;;17.00;99.90;;;;;;4124279;28;20058;-72
2022/07/01 06:38:49;;;;;;;6.78;4.55;;;17.00;99.90;;;;;;4125277;28;20379;-72
2022/07/01 06:43:09;;;;;;;9.07;4.50;;;17.10;99.90;;;;;;4123124;28;20051;-71
2022/07/01 06:45:11;;;;;;;10.40;6.43;;;17.10;99.90;;;;;;4118588;28;20076;-72
2022/07/01 06:47:11;;;;;;;6.93;4.85;;;17.00;99.90;;;;;;4120191;28;20030;-71
2022/07/01 06:49:12;;;;;;;11.88;4.45;;;17.00;99.90;;;;;;4124225;28;20060;-71
2022/07/01 06:51:13;;;;;;;7.13;4.28;;;17.10;99.90;;;;;;4123389;28;20096;-71
2022/07/01 06:53:13;;;;;;;8.00;4.68;;;17.00;99.90;;;;;;4121214;28;20129;-71
2022/07/01 06:55:14;;;;;;;10.23;4.70;;;17.00;99.90;;;;;;4124562;28;20095;-72
2022/07/01 06:57:15;;;;;;;7.55;4.05;;;17.00;99.90;;;;;;4122884;28;20083;-72
2022/07/01 06:59:15;;;;;;;5.47;3.85;;;17.00;99.90;;;;;;4113971;28;20074;-72
2022/07/01 07:01:16;;;;;;;5.90;3.75;;;17.00;99.90;;;;;;4124854;28;20053;-71
2022/07/01 07:03:16;;;;;;;6.32;3.75;;;17.00;99.90;;;;;;4124395;28;20042;-72
2022/07/01 07:05:17;;;;;;;6.00;4.10;;;17.10;99.90;;;;;;4123529;28;20057;-72
2022/07/01 07:07:17;;;;;;;8.10;3.40;;;17.00;99.90;;;;;;4109924;28;20058;-72
2022/07/01 07:09:18;;;;;;;8.30;4.38;;;17.10;99.90;;;;;;4117587;28;20624;-71
2022/07/01 07:11:19;;;;;;;6.43;3.92;;;17.20;99.90;;;;;;4125199;28;20034;-72
2022/07/01 07:13:20;;;;;;;7.75;4.10;;;17.30;99.90;;;;;;4120578;28;20416;-72
2022/07/01 07:15:20;;;;;;;5.55;4.00;;;17.20;99.90;;;;;;4120107;28;20158;-72
2022/07/01 07:17:21;;;;;;;4.70;4.07;;;17.30;99.90;;;;;;4106594;28;20039;-72
2022/07/01 07:19:22;;;;;;;6.18;3.97;;;17.30;99.90;;;;;;4122914;28;20077;-72
2022/07/01 07:21:22;;;;;;;10.38;4.05;;;17.40;99.90;;;;;;4122855;28;20401;-72
2022/07/01 07:23:23;;;;;;;5.43;4.00;;;17.50;99.90;;;;;;4123207;28;20045;-72
2022/07/01 07:25:24;;;;;;;6.68;3.92;;;17.50;99.90;;;;;;4105438;28;20102;-72
2022/07/01 07:27:24;;;;;;;6.22;4.10;;;17.60;99.90;;;;;;4124681;28;20027;-72
2022/07/01 07:29:25;;;;;;;5.32;3.38;;;17.60;99.90;;;;;;4125799;28;20501;-72
2022/07/01 07:31:25;;;;;;;5.45;3.50;;;17.60;99.90;;;;;;4121823;28;20031;-72
2022/07/01 07:33:26;;;;;;;5.40;3.63;;;17.70;99.90;;;;;;4124020;28;20053;-72
2022/07/01 07:35:27;;;;;;;6.50;3.50;;;17.70;99.90;;;;;;4119939;28;20101;-72
2022/07/01 07:37:27;;;;;;;5.57;3.25;;;17.80;99.90;;;;;;4122882;28;20486;-72
2022/07/01 07:39:28;;;;;;;6.55;3.10;;;17.80;99.90;;;;;;4119955;28;20038;-72
2022/07/01 07:41:28;;;;;;;5.35;3.13;;;17.80;99.90;;;;;;4112635;28;20240;-72
2022/07/01 07:43:29;;;;;;;9.65;3.53;;;17.90;99.90;;;;;;4121557;28;20177;-72
2022/07/01 07:45:30;;;;;;;5.15;3.13;;;18.00;99.90;;;;;;4119172;28;20050;-73
2022/07/01 07:47:32;;;;;;;4.25;2.67;;;18.00;99.90;;;;;;4123220;28;20030;-73
2022/07/01 07:49:32;;;;;;;4.20;3.45;;;18.20;99.90;;;;;;4124566;28;20042;-72
2022/07/01 07:51:33;;;;;;;7.40;3.78;;;18.20;99.90;;;;;;4121912;28;20039;-72
2022/07/01 07:53:34;;;;;;;5.55;3.40;;;18.10;99.90;;;;;;4124351;28;20466;-72
2022/07/01 07:55:34;;;;;;;5.57;3.08;;;18.20;99.90;;;;;;4118410;28;20038;-72
2022/07/01 07:57:39;;;;;;;6.47;3.13;;;18.20;99.90;;;;;;4123292;28;20414;-72
2022/07/01 07:59:39;;;;;;;5.13;2.40;;;18.20;99.90;;;;;;4122927;28;20085;-72
2022/07/01 08:01:40;;;;;;;7.38;2.60;;;18.20;99.90;;;;;;4121119;28;20038;-72
2022/07/01 08:03:40;;;;;;;4.93;2.70;;;18.20;99.90;;;;;;4122931;28;20034;-72
2022/07/01 08:05:41;;;;;;;5.38;2.92;;;18.30;99.90;;;;;;4121995;28;20379;-72
2022/07/01 08:07:42;;;;;;;4.70;3.00;;;18.30;99.90;;;;;;4124768;28;20031;-72
2022/07/01 08:09:47;;;;;;;6.75;2.95;;;18.40;99.90;;;;;;4124216;28;20478;-73
2022/07/01 08:11:48;;;;;;;5.43;2.85;;;18.60;99.90;;;;;;4107793;28;20182;-72
2022/07/01 08:13:49;;;;;;;9.30;2.47;;;18.70;99.90;;;;;;4127751;28;20030;-72
2022/07/01 08:15:50;;;;;;;2.92;2.15;;;18.70;99.90;;;;;;4120433;28;20414;-73
2022/07/01 08:17:51;;;;;;;4.07;2.35;;;18.80;99.90;;;;;;4127810;28;20398;-73
2022/07/01 08:19:52;;;;;;;3.78;2.00;;;18.80;99.90;;;;;;4127400;28;20057;-72
2022/07/01 08:21:52;;;;;;;4.18;2.15;;;18.90;99.90;;;;;;4128371;28;20026;-72
2022/07/01 08:23:53;;;;;;;4.97;2.03;;;19.00;99.90;;;;;;4110918;28;20085;-73
2022/07/01 08:25:53;;;;;;;3.83;1.90;;;19.00;99.90;;;;;;4123626;28;20038;-73
2022/07/01 08:27:54;;;;;;;4.65;2.03;;;19.10;99.90;;;;;;4126398;28;20042;-73
2022/07/01 08:29:54;;;;;;;3.80;2.00;;;19.10;99.90;;;;;;4127328;28;20046;-73
2022/07/01 08:31:55;;;;;;;5.28;1.90;;;19.20;99.90;;;;;;4126816;28;20044;-73
2022/07/01 08:33:56;;;;;;;3.25;1.55;;;19.20;99.90;;;;;;4126896;28;20030;-73
2022/07/01 08:35:56;;;;;;;3.45;1.50;;;19.30;99.90;;;;;;4118998;28;20043;-73
2022/07/01 08:37:57;;;;;;;4.85;1.90;;;19.40;99.90;;;;;;4126482;28;23110;-73
2022/07/01 08:39:59;;;;;;;5.03;1.90;;;19.50;99.90;;;;;;4126207;28;20133;-72
2022/07/01 08:41:59;;;;;;;2.83;1.30;;;19.60;99.90;;;;;;4124032;28;20105;-73
2022/07/01 08:44:00;;;;;;;4.07;1.80;;;19.60;99.90;;;;;;4127309;28;20077;-72
2022/07/01 08:46:02;;;;;;;4.20;1.60;;;19.60;99.90;;;;;;4123395;28;20035;-73
2022/07/01 08:48:04;;;;;;;3.67;1.65;;;19.70;99.90;;;;;;4124695;28;20081;-73
2022/07/01 08:50:05;;;;;;;3.58;1.40;;;19.70;99.90;;;;;;4127670;28;20080;-74
2022/07/01 08:52:05;;;;;;;4.28;1.50;;;19.70;99.90;;;;;;4127047;28;20046;-72
2022/07/01 08:54:06;;;;;;;2.25;1.10;;;19.80;99.90;;;;;;4126992;28;20042;-72
2022/07/01 08:58:28;;;;;;;2.05;1.00;;;19.80;99.90;;;;;;4127205;28;20050;-73
2022/07/01 09:00:32;;;;;;;1.98;1.02;;;19.90;99.90;;;;;;4126000;28;20062;-73
2022/07/01 09:03:00;;;;;;;3.95;1.42;;;19.90;99.90;;;;;;4124992;28;20031;-73
2022/07/01 09:05:07;;;;;;;4.70;1.55;;;20.00;99.90;;;;;;4123420;28;20042;-73
2022/07/01 09:07:09;;;;;;;3.08;1.23;;;20.10;99.90;;;;;;4124306;28;20054;-72
2022/07/01 09:09:21;;;;;;;1.23;0.70;;;20.10;99.90;;;;;;4126825;28;20051;-73
2022/07/01 09:11:24;;;;;;;3.85;1.13;;;20.10;99.90;;;;;;4124693;28;20061;-73
2022/07/01 09:13:25;;;;;;;6.00;0.98;;;20.10;99.90;;;;;;4123880;28;20064;-73
2022/07/01 09:15:31;;;;;;;1.45;1.10;;;20.20;99.90;;;;;;4111759;28;20059;-73
2022/07/01 09:17:38;;;;;;;4.97;1.10;;;20.20;99.90;;;;;;4124865;28;20044;-73
2022/07/01 09:19:40;;;;;;;2.03;0.88;;;20.20;99.90;;;;;;4127157;28;20034;-73
2022/07/01 09:21:42;;;;;;;1.63;0.85;;;20.30;99.90;;;;;;4125469;28;20022;-73
2022/07/01 09:23:42;;;;;;;2.45;1.13;;;20.30;99.90;;;;;;4125915;28;20561;-73
2022/07/01 09:25:48;;;;;;;2.35;0.93;;;20.30;99.90;;;;;;4124495;28;20034;-73
2022/07/01 09:28:06;;;;;;;2.05;1.00;;;20.30;99.90;;;;;;4125416;28;20042;-73
2022/07/01 09:30:09;;;;;;;2.15;0.63;;;20.20;99.90;;;;;;4125796;28;20068;-73
2022/07/01 09:32:12;;;;;;;1.20;0.65;;;20.20;99.90;;;;;;4126205;28;20056;-74
2022/07/01 09:34:12;;;;;;;1.42;0.90;;;20.20;99.90;;;;;;4118347;28;20038;-73
2022/07/01 09:36:16;;;;;;;1.85;0.63;;;20.20;99.90;;;;;;4124364;28;20552;-73
2022/07/01 09:38:19;;;;;;;3.30;0.70;;;20.20;99.90;;;;;;4120137;28;20054;-73
2022/07/01 09:40:19;;;;;;;6.60;1.00;;;20.30;99.90;;;;;;4125673;28;20050;-74
2022/07/01 09:42:22;;;;;;;2.75;0.90;;;20.30;99.90;;;;;;4125557;28;20051;-73
2022/07/01 09:44:23;;;;;;;;;;;20.40;99.90;;;;;;4126775;28;20185;-73
2022/07/01 09:46:25;;;;;;;3.42;1.17;;;20.30;99.90;;;;;;4123956;28;19941;-73
2022/07/01 09:48:34;;;;;;;2.00;0.70;;;20.20;99.90;;;;;;4124526;28;20030;-74
2022/07/01 09:50:36;;;;;;;2.75;1.08;;;20.20;99.90;;;;;;4124589;28;20041;-74
2022/07/01 09:52:38;;;;;;;6.78;1.38;;;20.30;99.90;;;;;;4125105;28;20077;-73
2022/07/01 09:54:39;;;;;;;2.72;1.10;;;20.30;99.90;;;;;;4121884;28;20033;-72
2022/07/01 09:56:40;;;;;;;4.70;1.10;;;20.40;99.90;;;;;;4124354;28;20034;-73
2022/07/01 09:58:42;;;;;;;2.10;0.75;;;20.40;99.90;;;;;;4126579;28;20030;-73
2022/07/01 10:00:44;;;;;;;4.65;0.88;;;20.40;99.90;;;;;;4126314;28;20097;-73
2022/07/01 10:02:46;;;;;;;8.00;0.98;;;20.40;99.90;;;;;;4126114;28;20534;-73
2022/07/01 10:04:53;;;;;;;5.07;1.15;;;20.40;99.90;;;;;;4124343;28;20029;-74
2022/07/01 10:07:20;;;;;;;2.28;0.70;;;20.40;99.90;;;;;;4123297;28;20435;-73
2022/07/01 10:09:58;;;;;;;3.13;1.00;;;20.30;99.90;;;;;;4126600;28;20528;-73
2022/07/01 10:12:29;;;;;;;2.35;1.17;;;20.30;99.90;;;;;;4125607;28;20033;-74
2022/07/01 10:14:31;;;;;;;3.63;1.10;;;20.30;99.90;;;;;;4120988;28;20041;-73
2022/07/01 10:16:34;;;;;;;3.60;1.00;;;20.30;99.90;;;;;;4123580;28;20371;-74
2022/07/01 10:18:34;;;;;;;4.72;1.00;;;20.30;99.90;;;;;;4125916;28;20093;-73
2022/07/01 10:20:37;;;;;;;3.47;0.70;;;20.20;99.90;;;;;;4123901;28;20042;-74
2022/07/01 10:22:39;;;;;;;1.92;0.80;;;20.40;99.90;;;;;;4123260;28;20457;-73
2022/07/01 10:24:39;;;;;;;5.10;0.93;;;20.40;99.90;;;;;;4119640;28;20026;-73
2022/07/01 10:26:41;;;;;;;2.13;0.77;;;20.40;99.90;;;;;;4123239;28;20058;-73
2022/07/01 10:28:43;;;;;;;3.33;0.93;;;20.50;99.90;;;;;;4125190;28;20415;-73
2022/07/01 10:30:59;;;;;;;2.28;0.80;;;20.50;99.90;;;;;;4124929;28;20474;-73
2022/07/01 10:33:01;;;;;;;2.40;0.80;;;20.60;99.90;;;;;;4124113;28;20039;-74
2022/07/01 10:35:06;;;;;;;3.03;1.27;;;20.70;99.90;;;;;;4123092;28;20041;-74
2022/07/01 10:37:10;;;;;;;1.83;0.70;;;20.80;99.90;;;;;;4123421;28;20158;-74
2022/07/01 10:39:13;;;;;;;1.40;0.73;;;20.90;99.90;;;;;;4125409;28;20069;-74
2022/07/01 10:41:24;;;;;;;2.15;0.93;;;21.00;99.90;;;;;;4124788;28;20038;-74
2022/07/01 10:43:35;;;;;;;2.63;1.08;;;21.10;99.90;;;;;;4125031;28;20502;-74